Time;durP1;ratioP1;P1;durP2;ratioP2;P2;SDS_P1;SDS_P2;PMS_P1;PMS_P2;Temp;Humidity;BMP_temperature;BMP_pressure;BME280_temperature;BME280_humidity;BME280_pressure;Samples;Min_cycle;Max_cycle;Signal;HPM_P1;HPM_P2
2022/05/25 00:00:48;;;;;;;21.30;20.50;;;16.00;42.40;;;;;;4992499;28;20202;-82
2022/05/25 00:03:14;;;;;;;20.63;19.93;;;15.90;43.00;;;;;;4991704;28;20205;-82
2022/05/25 00:05:41;;;;;;;20.77;20.07;;;15.90;43.10;;;;;;4994730;28;20174;-82
2022/05/25 00:08:09;;;;;;;21.20;20.30;;;15.90;43.30;;;;;;4992375;28;20774;-82
2022/05/25 00:10:36;;;;;;;21.07;20.37;;;15.90;43.10;;;;;;4985808;28;20557;-82
2022/05/25 00:13:02;;;;;;;20.90;20.17;;;15.90;42.50;;;;;;4992272;28;20484;-82
2022/05/25 00:15:28;;;;;;;20.33;19.63;;;15.80;43.10;;;;;;4990550;28;20776;-82
2022/05/25 00:17:54;;;;;;;20.63;19.93;;;15.80;41.90;;;;;;4992393;28;20763;-82
2022/05/25 00:20:20;;;;;;;21.00;20.30;;;15.80;41.90;;;;;;4992789;28;20425;-82
2022/05/25 00:22:49;;;;;;;20.93;19.93;;;15.80;42.80;;;;;;4989754;28;20551;-82
2022/05/25 00:25:29;;;;;;;20.90;20.10;;;15.80;43.20;;;;;;4990803;28;20418;-82
2022/05/25 00:27:55;;;;;;;21.00;20.30;;;15.80;41.80;;;;;;4990151;28;20494;-82
2022/05/25 00:30:21;;;;;;;21.20;20.40;;;15.80;41.90;;;;;;4992149;28;20417;-82
2022/05/25 00:32:47;;;;;;;21.27;20.47;;;15.80;41.70;;;;;;4990393;28;20832;-82
2022/05/25 00:35:20;;;;;;;21.10;20.30;;;15.80;42.40;;;;;;4990805;28;20417;-82
2022/05/25 00:37:46;;;;;;;20.43;19.63;;;15.80;41.40;;;;;;4990538;28;20414;-82
2022/05/25 00:40:20;;;;;;;20.70;19.90;;;15.80;42.10;;;;;;4990591;28;20405;-85
2022/05/25 00:42:46;;;;;;;21.47;20.67;;;15.80;41.70;;;;;;4993075;28;20839;-85
2022/05/25 00:45:17;;;;;;;21.70;20.90;;;15.80;40.10;;;;;;4990969;28;20422;-82
2022/05/25 00:47:46;;;;;;;21.03;20.33;;;15.80;42.00;;;;;;4991080;28;20182;-82
2022/05/25 00:50:17;;;;;;;21.70;20.90;;;15.70;41.70;;;;;;4991549;28;20419;-82
2022/05/25 00:52:46;;;;;;;22.10;20.90;;;15.70;41.20;;;;;;4991540;28;20506;-82
2022/05/25 00:55:18;;;;;;;21.30;20.50;;;15.70;42.10;;;;;;4991845;28;20967;-82
2022/05/25 00:57:49;;;;;;;21.40;20.60;;;15.60;41.10;;;;;;4990542;28;20424;-82
2022/05/25 01:00:16;;;;;;;21.63;20.83;;;15.70;40.80;;;;;;4990041;28;20414;-82
2022/05/25 01:02:51;;;;;;;21.67;20.87;;;15.70;41.00;;;;;;4988857;28;20440;-82
2022/05/25 01:05:24;;;;;;;21.17;20.47;;;15.70;41.20;;;;;;4992346;28;20872;-82
2022/05/25 01:08:05;;;;;;;21.07;20.27;;;15.70;40.80;;;;;;4989822;28;20864;-82
2022/05/25 01:11:07;;;;;;;20.90;20.00;;;15.70;41.60;;;;;;4989689;28;20421;-82
2022/05/25 01:13:35;;;;;;;20.97;20.17;;;15.70;41.10;;;;;;4990337;28;20460;-82
2022/05/25 01:16:33;;;;;;;20.40;19.50;;;15.60;40.70;;;;;;4990102;28;20420;-82
2022/05/25 01:19:05;;;;;;;20.03;19.33;;;15.70;40.90;;;;;;4990866;28;20440;-83
2022/05/25 01:21:54;;;;;;;20.80;20.10;;;15.70;41.30;;;;;;4989176;28;20758;-82
2022/05/25 01:24:29;;;;;;;21.20;20.40;;;15.70;41.40;;;;;;4992135;28;20413;-82
2022/05/25 01:27:29;;;;;;;20.10;19.40;;;15.70;40.50;;;;;;4989736;28;20416;-82
2022/05/25 01:30:07;;;;;;;21.17;20.20;;;15.70;39.60;;;;;;4990337;28;20448;-82
2022/05/25 01:32:47;;;;;;;20.70;20.00;;;15.60;39.60;;;;;;4990764;28;20484;-82
2022/05/25 01:36:03;;;;;;;20.73;19.93;;;15.70;40.00;;;;;;4989117;28;20413;-82
2022/05/25 01:39:13;;;;;;;20.70;19.90;;;15.60;38.40;;;;;;4968406;28;20804;-82
2022/05/25 01:41:54;;;;;;;20.63;19.93;;;15.60;39.40;;;;;;4980152;28;20794;-81
2022/05/25 01:44:31;;;;;;;20.90;20.10;;;15.50;39.00;;;;;;4989525;28;20413;-82
2022/05/25 01:47:05;;;;;;;21.00;20.20;;;15.50;39.40;;;;;;4989536;28;20445;-83
2022/05/25 01:49:50;;;;;;;20.90;20.20;;;15.50;37.50;;;;;;4988831;28;20462;-83
2022/05/25 01:52:21;;;;;;;20.67;19.97;;;15.50;37.30;;;;;;4988729;28;20840;-83
2022/05/25 01:54:54;;;;;;;21.10;20.30;;;15.50;37.50;;;;;;4989608;28;20921;-83
2022/05/25 01:57:24;;;;;;;20.77;19.97;;;15.50;37.50;;;;;;5006568;28;20421;-83
2022/05/25 01:59:50;;;;;;;21.20;20.40;;;15.40;37.40;;;;;;4990804;28;20409;-83
2022/05/25 02:05:06;;;;;;;21.83;21.03;;;15.40;37.70;;;;;;4992651;28;20475;-83
2022/05/25 02:08:08;;;;;;;22.43;21.63;;;15.40;40.30;;;;;;4990439;28;20421;-83
2022/05/25 02:10:42;;;;;;;21.77;20.97;;;15.40;40.30;;;;;;4990792;28;20416;-83
2022/05/25 02:13:31;;;;;;;21.30;20.40;;;15.30;39.80;;;;;;4989595;28;20468;-83
2022/05/25 02:16:21;;;;;;;22.00;21.00;;;15.30;40.20;;;;;;4990363;28;20413;-83
2022/05/25 02:19:32;;;;;;;22.10;21.20;;;15.30;39.80;;;;;;4991669;28;20419;-83
2022/05/25 02:22:27;;;;;;;21.93;21.00;;;15.30;39.10;;;;;;4973052;28;20422;-83
2022/05/25 02:25:06;;;;;;;21.97;21.17;;;15.30;39.70;;;;;;4967063;28;20414;-82
2022/05/25 02:27:39;;;;;;;21.73;20.93;;;15.30;38.60;;;;;;4987135;28;20790;-83
2022/05/25 02:30:13;;;;;;;21.23;20.43;;;15.30;36.20;;;;;;4994899;28;20421;-83
2022/05/25 02:32:54;;;;;;;21.33;20.53;;;15.30;37.10;;;;;;4993290;28;20463;-82
2022/05/25 02:35:22;;;;;;;20.90;20.20;;;15.30;38.10;;;;;;4993306;28;20413;-82
2022/05/25 02:37:52;;;;;;;21.57;20.77;;;15.30;36.40;;;;;;4993406;28;20417;-83
2022/05/25 02:40:18;;;;;;;21.40;20.60;;;15.30;36.70;;;;;;4994800;28;20909;-83
2022/05/25 02:42:44;;;;;;;20.77;20.07;;;15.30;36.20;;;;;;4994368;28;20415;-83
2022/05/25 02:45:11;;;;;;;22.53;21.23;;;15.20;36.10;;;;;;4993731;28;20182;-83
2022/05/25 02:47:38;;;;;;;21.60;20.80;;;15.20;35.50;;;;;;4993077;28;20198;-83
2022/05/25 02:50:04;;;;;;;21.70;20.90;;;15.20;36.10;;;;;;4993061;28;20417;-83
2022/05/25 02:52:30;;;;;;;21.00;20.20;;;15.10;36.00;;;;;;4992239;28;20449;-83
2022/05/25 02:54:56;;;;;;;22.80;21.90;;;15.20;35.60;;;;;;4992247;28;20428;-83
2022/05/25 02:57:21;;;;;;;21.63;20.83;;;15.20;35.10;;;;;;4992282;28;20305;-83
2022/05/25 02:59:47;;;;;;;21.93;21.13;;;15.10;36.00;;;;;;4993256;28;20189;-83
2022/05/25 03:02:13;;;;;;;21.70;20.90;;;15.10;36.00;;;;;;4992820;28;20189;-83
2022/05/25 03:04:40;;;;;;;21.73;20.93;;;15.10;36.00;;;;;;4993118;28;20182;-82
2022/05/25 03:07:06;;;;;;;23.70;22.70;;;15.10;36.20;;;;;;4993553;28;20178;-83
2022/05/25 03:09:34;;;;;;;23.60;22.70;;;15.10;36.00;;;;;;4991344;28;20854;-83
2022/05/25 03:12:02;;;;;;;23.20;22.30;;;15.10;36.00;;;;;;4993189;28;20607;-83
2022/05/25 03:14:29;;;;;;;23.40;22.50;;;15.20;35.70;;;;;;4993801;28;20420;-83
2022/05/25 03:16:54;;;;;;;22.50;21.70;;;15.10;37.00;;;;;;4993486;28;20413;-83
2022/05/25 03:19:20;;;;;;;24.00;23.10;;;15.10;36.80;;;;;;4992758;28;20420;-83
2022/05/25 03:21:46;;;;;;;23.63;22.73;;;15.10;36.70;;;;;;4992509;28;20174;-83
2022/05/25 03:24:12;;;;;;;24.53;23.10;;;15.00;35.90;;;;;;4993312;28;20170;-83
2022/05/25 03:26:38;;;;;;;23.60;22.70;;;14.90;37.20;;;;;;4992753;28;20205;-82
2022/05/25 03:29:04;;;;;;;23.40;22.60;;;15.00;38.20;;;;;;4992699;28;20922;-83
2022/05/25 03:31:30;;;;;;;24.13;23.23;;;15.00;38.30;;;;;;4992264;28;20541;-82
2022/05/25 03:33:55;;;;;;;24.27;23.37;;;14.90;37.10;;;;;;4992745;28;20672;-83
2022/05/25 03:36:22;;;;;;;24.57;23.60;;;14.80;37.50;;;;;;4991896;28;20272;-83
2022/05/25 03:38:48;;;;;;;23.17;22.27;;;14.80;39.00;;;;;;4992261;28;20232;-82
2022/05/25 03:41:17;;;;;;;22.93;22.03;;;14.90;38.40;;;;;;4993050;28;20420;-82
2022/05/25 03:43:44;;;;;;;23.20;22.30;;;14.90;38.00;;;;;;4993273;28;20188;-82
2022/05/25 03:46:10;;;;;;;22.87;21.97;;;14.90;38.60;;;;;;4992820;28;20513;-82
2022/05/25 03:48:35;;;;;;;23.13;22.23;;;15.00;38.80;;;;;;4991611;28;20857;-82
2022/05/25 03:51:01;;;;;;;23.37;22.47;;;15.00;38.90;;;;;;4991552;28;20463;-82
2022/05/25 03:53:27;;;;;;;23.87;22.77;;;15.00;39.40;;;;;;4992143;28;20297;-82
2022/05/25 03:55:53;;;;;;;23.40;22.50;;;14.90;38.60;;;;;;4992338;28;20189;-83
2022/05/25 03:58:18;;;;;;;22.90;21.97;;;15.00;38.90;;;;;;4991956;28;20866;-82
2022/05/25 04:00:44;;;;;;;23.50;22.60;;;14.90;38.80;;;;;;4992417;28;20264;-83
2022/05/25 04:03:15;;;;;;;23.87;22.87;;;14.90;39.10;;;;;;4992433;28;20182;-83
2022/05/25 04:05:42;;;;;;;25.40;24.17;;;15.00;38.70;;;;;;4990373;28;20185;-83
2022/05/25 04:08:08;;;;;;;25.57;24.47;;;14.90;38.30;;;;;;4992926;28;20528;-83
2022/05/25 04:10:34;;;;;;;25.70;24.70;;;14.90;38.50;;;;;;4991794;28;20508;-83
2022/05/25 04:13:01;;;;;;;24.60;23.60;;;14.70;38.30;;;;;;4991451;28;21063;-83
2022/05/25 04:15:29;;;;;;;25.50;24.50;;;14.80;39.80;;;;;;4990975;28;20417;-83
2022/05/25 04:17:55;;;;;;;23.33;22.43;;;14.80;38.80;;;;;;4992259;28;20418;-83
2022/05/25 04:20:22;;;;;;;23.40;22.40;;;14.80;39.60;;;;;;4991345;28;20503;-82
2022/05/25 04:22:48;;;;;;;24.10;23.10;;;14.80;39.00;;;;;;4990314;28;20516;-83
2022/05/25 04:25:17;;;;;;;24.90;24.00;;;14.90;39.60;;;;;;4989576;28;20417;-82
2022/05/25 04:27:44;;;;;;;25.90;24.80;;;14.90;39.50;;;;;;4992084;28;20456;-82
2022/05/25 04:30:14;;;;;;;25.47;24.47;;;14.90;38.90;;;;;;4992070;28;20459;-82
2022/05/25 04:32:40;;;;;;;24.47;23.47;;;14.80;39.30;;;;;;4991231;28;20551;-83
2022/05/25 04:35:06;;;;;;;23.77;22.87;;;14.80;39.70;;;;;;4991566;28;20479;-83
2022/05/25 04:37:52;;;;;;;25.10;24.10;;;14.90;39.10;;;;;;4990227;28;20178;-82
2022/05/25 04:40:30;;;;;;;23.57;22.67;;;14.80;40.10;;;;;;4991956;28;20456;-82
2022/05/25 04:42:58;;;;;;;23.23;22.33;;;14.70;40.20;;;;;;4989600;28;20429;-83
2022/05/25 04:45:26;;;;;;;23.50;22.60;;;14.80;40.00;;;;;;4990236;28;20925;-83
2022/05/25 04:47:53;;;;;;;25.37;23.77;;;14.70;40.30;;;;;;4990937;28;20508;-83
2022/05/25 04:50:21;;;;;;;24.03;23.13;;;14.70;40.00;;;;;;4991624;28;20418;-83
2022/05/25 04:52:47;;;;;;;24.57;23.57;;;14.60;41.50;;;;;;4989270;28;20471;-83
2022/05/25 04:57:19;;;;;;;24.00;23.03;;;14.70;40.80;;;;;;4991100;28;20417;-83
2022/05/25 04:57:59;;;;;;;20.60;19.80;;;14.60;41.00;;;;;;4989795;28;20185;-83
2022/05/25 05:00:25;;;;;;;24.20;23.30;;;14.60;41.70;;;;;;4992094;28;20511;-83
2022/05/25 05:02:51;;;;;;;25.37;24.20;;;14.70;41.70;;;;;;4990085;28;20780;-83
2022/05/25 05:05:17;;;;;;;24.90;23.90;;;14.60;41.60;;;;;;4991546;28;20520;-83
2022/05/25 05:07:44;;;;;;;25.10;24.10;;;14.70;42.30;;;;;;4989505;28;20642;-83
2022/05/25 05:10:10;;;;;;;23.73;22.73;;;14.60;40.60;;;;;;4990238;28;20676;-83
2022/05/25 05:12:36;;;;;;;26.00;25.00;;;14.50;41.70;;;;;;4989989;28;20487;-83
2022/05/25 05:15:03;;;;;;;23.90;23.00;;;14.60;42.20;;;;;;4989173;28;20417;-83
2022/05/25 05:17:29;;;;;;;24.77;23.77;;;14.70;41.70;;;;;;4990289;28;20189;-83
2022/05/25 05:19:56;;;;;;;24.23;23.20;;;14.70;40.90;;;;;;4991129;28;20417;-83
2022/05/25 05:22:22;;;;;;;24.27;23.27;;;14.70;42.20;;;;;;4990969;28;20228;-83
2022/05/25 05:24:47;;;;;;;24.23;23.23;;;14.60;41.10;;;;;;4989943;28;20429;-83
2022/05/25 05:27:13;;;;;;;23.90;23.00;;;14.60;40.20;;;;;;4990548;28;20425;-83
2022/05/25 05:29:38;;;;;;;22.70;21.80;;;14.60;41.20;;;;;;4989154;28;20562;-82
2022/05/25 05:32:05;;;;;;;24.37;23.33;;;14.60;41.00;;;;;;4991578;28;20205;-83
2022/05/25 05:34:30;;;;;;;24.50;23.60;;;14.60;40.00;;;;;;4990002;28;20174;-83
2022/05/25 05:37:10;;;;;;;24.50;23.50;;;14.70;40.70;;;;;;4990053;28;20431;-83
2022/05/25 05:39:40;;;;;;;23.40;22.50;;;14.60;40.40;;;;;;4989096;28;20181;-83
2022/05/25 05:42:10;;;;;;;24.50;23.30;;;14.60;40.30;;;;;;4989743;28;20425;-82
2022/05/25 05:44:49;;;;;;;21.20;20.30;;;14.70;41.40;;;;;;4990967;28;20417;-86
2022/05/25 05:47:21;;;;;;;25.43;24.43;;;14.70;40.80;;;;;;4991396;28;20447;-86
2022/05/25 05:49:47;;;;;;;24.60;23.70;;;14.80;40.80;;;;;;4990925;28;20417;-85
2022/05/25 05:52:13;;;;;;;24.07;22.97;;;14.90;40.00;;;;;;4989478;28;20464;-86
2022/05/25 05:54:39;;;;;;;24.30;23.30;;;15.00;39.90;;;;;;4993965;28;20760;-86
2022/05/25 05:57:05;;;;;;;25.10;24.10;;;15.00;40.10;;;;;;4994780;28;20602;-86
2022/05/25 05:59:31;;;;;;;24.97;23.87;;;15.20;39.80;;;;;;4995126;28;20908;-86
2022/05/25 06:01:57;;;;;;;24.67;23.67;;;15.20;36.80;;;;;;4996816;28;20416;-85
2022/05/25 06:04:22;;;;;;;24.73;23.73;;;15.20;39.00;;;;;;4994070;28;20181;-85
2022/05/25 06:06:49;;;;;;;26.10;24.60;;;15.30;38.40;;;;;;4994592;28;20182;-85
2022/05/25 06:09:16;;;;;;;24.00;23.00;;;15.40;38.10;;;;;;4994349;28;20565;-86
2022/05/25 06:11:42;;;;;;;24.20;23.30;;;15.40;36.80;;;;;;4994107;28;20421;-86
2022/05/25 06:14:09;;;;;;;24.80;23.70;;;15.40;36.80;;;;;;4994977;28;20472;-85
2022/05/25 06:19:26;;;;;;;25.73;24.63;;;15.50;37.50;;;;;;4996966;28;20913;-85
2022/05/25 06:22:12;;;;;;;23.37;22.37;;;15.40;36.60;;;;;;4995836;28;20819;-85
2022/05/25 06:24:44;;;;;;;24.00;23.00;;;15.40;37.90;;;;;;4994842;28;20500;-85
2022/05/25 06:27:12;;;;;;;24.80;23.80;;;15.40;37.50;;;;;;4993829;28;20468;-85
2022/05/25 06:29:43;;;;;;;23.63;22.63;;;15.50;37.70;;;;;;4994288;28;20428;-85
2022/05/25 06:32:11;;;;;;;25.13;24.23;;;15.50;37.40;;;;;;4994375;28;20464;-85
2022/05/25 06:34:38;;;;;;;25.53;24.30;;;15.60;38.30;;;;;;4993379;28;20852;-85
2022/05/25 06:37:04;;;;;;;23.90;23.00;;;15.60;38.30;;;;;;4993812;28;20421;-84
2022/05/25 06:39:37;;;;;;;24.47;23.47;;;15.60;37.50;;;;;;4993688;28;20850;-84
2022/05/25 06:42:06;;;;;;;24.33;23.43;;;15.60;37.60;;;;;;4994891;28;20429;-85
2022/05/25 06:44:32;;;;;;;24.87;23.77;;;15.70;36.50;;;;;;4993584;28;20476;-85
2022/05/25 06:46:58;;;;;;;25.20;24.10;;;15.70;37.90;;;;;;4994134;28;20425;-85
2022/05/25 06:49:24;;;;;;;24.30;23.40;;;15.70;37.40;;;;;;4994886;28;20413;-85
2022/05/25 06:51:50;;;;;;;24.00;23.10;;;15.70;37.20;;;;;;4995350;28;20924;-85
2022/05/25 06:54:17;;;;;;;23.47;22.37;;;15.70;37.80;;;;;;4994408;28;20180;-85
2022/05/25 06:56:44;;;;;;;22.43;21.30;;;15.70;38.20;;;;;;4993694;28;20178;-85
2022/05/25 06:59:10;;;;;;;24.20;23.30;;;15.70;38.10;;;;;;4993801;28;20509;-86
2022/05/25 07:01:37;;;;;;;24.10;23.20;;;15.70;38.40;;;;;;4993687;28;20997;-86
2022/05/25 07:04:04;;;;;;;24.13;23.13;;;15.60;37.60;;;;;;4993119;28;20440;-85
2022/05/25 07:06:29;;;;;;;24.40;23.50;;;15.60;38.40;;;;;;4992959;28;20426;-85
2022/05/25 07:08:55;;;;;;;25.53;23.90;;;15.70;38.70;;;;;;4993749;28;21020;-85
2022/05/25 07:11:24;;;;;;;23.83;22.77;;;15.70;38.10;;;;;;4994351;28;20184;-86
2022/05/25 07:13:50;;;;;;;23.73;22.73;;;15.70;37.70;;;;;;4993154;28;20267;-86
2022/05/25 07:16:19;;;;;;;24.00;23.00;;;15.70;37.90;;;;;;4993693;28;20406;-85
2022/05/25 07:18:46;;;;;;;23.97;22.97;;;15.80;37.30;;;;;;4993426;28;20460;-85
2022/05/25 07:21:14;;;;;;;24.43;23.43;;;16.00;38.10;;;;;;4993994;28;20413;-85
2022/05/25 07:23:41;;;;;;;24.27;23.27;;;16.00;34.60;;;;;;4991973;28;20452;-85
2022/05/25 07:26:08;;;;;;;24.17;22.97;;;16.10;36.50;;;;;;4993239;28;20413;-86
2022/05/25 07:28:35;;;;;;;24.67;23.47;;;16.10;37.10;;;;;;4992759;28;20815;-85
2022/05/25 07:31:08;;;;;;;24.40;23.40;;;16.10;36.80;;;;;;4993778;28;20424;-85
2022/05/25 07:33:35;;;;;;;24.70;23.60;;;16.30;34.90;;;;;;4992378;28;20460;-85
2022/05/25 07:36:02;;;;;;;24.33;23.43;;;16.40;36.50;;;;;;4991527;28;20452;-86
2022/05/25 07:38:29;;;;;;;23.57;22.67;;;16.40;34.80;;;;;;4992834;28;20421;-84
2022/05/25 07:40:56;;;;;;;23.87;22.97;;;16.50;35.90;;;;;;4992505;28;20528;-84
2022/05/25 07:43:24;;;;;;;25.07;23.97;;;16.50;34.70;;;;;;4993098;28;20422;-84
2022/05/25 07:45:50;;;;;;;23.73;22.53;;;16.40;34.70;;;;;;4992378;28;20521;-84
2022/05/25 07:48:16;;;;;;;24.40;23.40;;;16.50;33.60;;;;;;4993057;28;20500;-85
2022/05/25 07:50:43;;;;;;;23.97;22.97;;;16.60;34.20;;;;;;4993672;28;20182;-85
2022/05/25 07:55:59;;;;;;;23.40;22.50;;;16.60;32.50;;;;;;4994215;28;20416;-85
2022/05/25 07:58:25;;;;;;;24.07;23.17;;;16.60;32.70;;;;;;4993728;28;20409;-85
2022/05/25 08:00:53;;;;;;;23.17;22.27;;;16.70;32.50;;;;;;4991095;28;20425;-85
2022/05/25 08:06:05;;;;;;;23.87;22.97;;;16.60;31.30;;;;;;4993453;28;20436;-85
2022/05/25 08:08:31;;;;;;;23.53;22.63;;;16.70;31.40;;;;;;4992760;28;20437;-85
2022/05/25 08:11:07;;;;;;;23.87;22.97;;;16.70;31.50;;;;;;4993007;28;20444;-85
2022/05/25 08:13:40;;;;;;;23.73;22.83;;;16.70;30.70;;;;;;4993057;28;20872;-85
2022/05/25 08:16:08;;;;;;;23.57;22.40;;;16.70;32.00;;;;;;4992643;28;20932;-86
2022/05/25 08:18:34;;;;;;;23.73;22.67;;;16.70;29.40;;;;;;4992617;28;20472;-85
2022/05/25 08:21:00;;;;;;;22.83;21.93;;;16.80;30.90;;;;;;4993145;28;20822;-85
2022/05/25 08:23:25;;;;;;;22.73;21.93;;;17.00;30.90;;;;;;4992934;28;20642;-85
2022/05/25 08:25:51;;;;;;;22.07;21.27;;;17.20;30.30;;;;;;4992015;28;20471;-85
2022/05/25 08:28:17;;;;;;;21.83;21.03;;;17.30;31.10;;;;;;4992433;28;20301;-86
2022/05/25 08:30:44;;;;;;;23.90;22.90;;;17.30;30.40;;;;;;4992123;28;20504;-86
2022/05/25 08:33:11;;;;;;;22.80;21.80;;;17.40;30.60;;;;;;4992948;28;20460;-86
2022/05/25 08:35:37;;;;;;;22.03;21.23;;;17.50;30.40;;;;;;4992602;28;20496;-86
2022/05/25 08:38:03;;;;;;;22.70;21.90;;;17.60;29.60;;;;;;4992522;28;20516;-86
2022/05/25 08:40:31;;;;;;;23.50;22.50;;;17.60;29.60;;;;;;4992939;28;20591;-86
2022/05/25 08:43:07;;;;;;;22.83;21.83;;;17.50;30.00;;;;;;4992543;28;20483;-85
2022/05/25 08:45:48;;;;;;;21.80;21.00;;;17.50;30.00;;;;;;5008516;28;20416;-85
2022/05/25 08:48:16;;;;;;;21.60;20.80;;;17.60;29.80;;;;;;4992788;28;21167;-85
2022/05/25 08:50:45;;;;;;;21.67;20.83;;;17.50;30.00;;;;;;4992499;28;20500;-85
2022/05/25 08:53:12;;;;;;;22.30;21.20;;;17.60;29.30;;;;;;4991758;28;20595;-86
2022/05/25 08:56:15;;;;;;;22.10;21.20;;;17.60;28.30;;;;;;4991435;28;20417;-86
2022/05/25 08:58:49;;;;;;;21.90;21.10;;;17.60;29.50;;;;;;4992633;28;20409;-86
2022/05/25 09:01:25;;;;;;;20.87;20.10;;;17.50;29.00;;;;;;4992059;28;20417;-86
2022/05/25 09:04:09;;;;;;;22.50;21.60;;;17.60;29.10;;;;;;4992451;28;20485;-86
2022/05/25 09:06:59;;;;;;;22.10;21.30;;;17.50;28.30;;;;;;4991729;28;20413;-86
2022/05/25 09:09:38;;;;;;;22.37;21.37;;;17.50;29.40;;;;;;4992222;28;20436;-85
2022/05/25 09:12:09;;;;;;;22.00;21.20;;;17.60;28.50;;;;;;4991894;28;20444;-85
2022/05/25 09:14:52;;;;;;;22.43;21.63;;;17.70;28.40;;;;;;4992018;28;20417;-85
2022/05/25 09:17:31;;;;;;;23.57;22.67;;;17.80;28.20;;;;;;4992104;28;20417;-85
2022/05/25 09:19:59;;;;;;;22.90;22.10;;;18.00;28.00;;;;;;4991525;28;20462;-85
2022/05/25 09:22:26;;;;;;;23.20;22.20;;;18.10;28.40;;;;;;4990801;28;20435;-85
2022/05/25 09:24:55;;;;;;;22.27;21.47;;;18.10;26.60;;;;;;4991846;28;20276;-84
2022/05/25 09:27:46;;;;;;;22.63;21.73;;;18.00;26.80;;;;;;4991712;28;20418;-85
2022/05/25 09:30:14;;;;;;;22.20;21.30;;;18.00;26.20;;;;;;4991931;28;20413;-85
2022/05/25 09:32:53;;;;;;;23.10;22.20;;;17.90;27.20;;;;;;4991471;28;20503;-85
2022/05/25 09:35:42;;;;;;;22.63;21.83;;;17.90;26.80;;;;;;4991504;28;20415;-85
2022/05/25 09:38:29;;;;;;;20.60;19.70;;;17.90;26.40;;;;;;4992017;28;20484;-85
2022/05/25 09:40:56;;;;;;;22.30;21.40;;;17.90;26.80;;;;;;4992252;28;20424;-85
2022/05/25 09:43:24;;;;;;;21.57;20.77;;;17.90;27.20;;;;;;4991970;28;20464;-85
2022/05/25 09:45:54;;;;;;;21.70;20.90;;;17.90;26.70;;;;;;4993019;28;20413;-85
2022/05/25 09:48:29;;;;;;;21.80;21.00;;;17.90;26.70;;;;;;4991903;28;20424;-85
2022/05/25 09:51:05;;;;;;;21.80;21.00;;;17.90;27.10;;;;;;4991790;28;20499;-85
2022/05/25 09:53:41;;;;;;;21.93;21.13;;;17.90;27.20;;;;;;4991686;28;20467;-85
2022/05/25 09:56:35;;;;;;;22.33;21.30;;;18.10;27.20;;;;;;4991448;28;20994;-85
2022/05/25 09:59:07;;;;;;;23.50;22.47;;;18.10;27.70;;;;;;4992112;28;20417;-84
2022/05/25 10:01:44;;;;;;;22.30;21.40;;;18.10;27.40;;;;;;4991754;28;20496;-85
2022/05/25 10:04:13;;;;;;;22.33;21.53;;;18.00;26.70;;;;;;4991515;28;20781;-84
2022/05/25 10:06:49;;;;;;;21.23;20.47;;;18.20;26.90;;;;;;4991396;28;20783;-85
2022/05/25 10:09:25;;;;;;;21.30;20.50;;;18.20;27.40;;;;;;4991424;28;20952;-85
2022/05/25 10:11:54;;;;;;;21.57;20.77;;;18.40;28.00;;;;;;4991271;28;20850;-85
2022/05/25 10:14:23;;;;;;;21.80;20.90;;;18.60;26.40;;;;;;4991529;28;20438;-85
2022/05/25 10:16:49;;;;;;;21.63;20.73;;;18.70;26.30;;;;;;4991244;28;20409;-85
2022/05/25 10:19:17;;;;;;;21.70;20.90;;;18.70;25.60;;;;;;4991464;28;20518;-85
2022/05/25 10:21:51;;;;;;;22.17;21.27;;;19.00;26.00;;;;;;4991573;28;20941;-85
2022/05/25 10:24:23;;;;;;;21.33;20.53;;;19.00;26.20;;;;;;4991359;28;20428;-86
2022/05/25 10:26:52;;;;;;;20.47;19.67;;;19.00;26.10;;;;;;4991399;28;20428;-85
2022/05/25 10:38:27;;;;;;;20.30;19.60;;;18.70;24.00;;;;;;4992903;28;20412;-86
2022/05/25 10:40:54;;;;;;;20.87;19.97;;;18.70;24.70;;;;;;4997191;28;20424;-83
2022/05/25 10:43:31;;;;;;;21.27;20.00;;;18.60;25.10;;;;;;4995607;28;20417;-83
2022/05/25 10:46:01;;;;;;;20.80;19.90;;;18.60;25.10;;;;;;4994570;28;20475;-85
2022/05/25 10:48:30;;;;;;;20.70;19.60;;;18.60;24.20;;;;;;4995067;28;20797;-85
2022/05/25 10:51:09;;;;;;;20.70;19.80;;;18.60;24.80;;;;;;4994804;28;20454;-85
2022/05/25 10:54:44;;;;;;;19.93;19.23;;;18.60;24.50;;;;;;4994553;28;20464;-85
2022/05/25 10:57:00;;;;;;;19.97;19.10;;;18.80;25.10;;;;;;4995609;28;20445;-85
2022/05/25 10:59:34;;;;;;;20.10;19.40;;;19.00;23.60;;;;;;4994713;28;20425;-85
2022/05/25 11:02:28;;;;;;;20.70;20.00;;;19.20;23.70;;;;;;4994564;28;20953;-85
2022/05/25 11:05:06;;;;;;;20.90;19.67;;;19.50;23.50;;;;;;4994050;28;20414;-85
2022/05/25 11:07:34;;;;;;;19.90;19.20;;;19.70;24.20;;;;;;4994430;28;20470;-85
2022/05/25 11:10:31;;;;;;;19.53;18.83;;;19.80;22.80;;;;;;4994636;28;20925;-85
2022/05/25 11:13:18;;;;;;;20.40;19.33;;;19.70;21.50;;;;;;4994510;28;20508;-84
2022/05/25 11:15:58;;;;;;;20.57;19.77;;;19.40;22.90;;;;;;4994173;28;20926;-85
2022/05/25 11:18:42;;;;;;;19.43;18.60;;;19.30;23.30;;;;;;4994736;28;20456;-85
2022/05/25 11:21:23;;;;;;;20.50;19.60;;;19.30;23.80;;;;;;4994515;28;20725;-86
2022/05/25 11:23:56;;;;;;;20.07;19.37;;;19.10;23.80;;;;;;4994409;28;20457;-84
2022/05/25 11:26:48;;;;;;;20.03;19.33;;;19.00;24.20;;;;;;4994565;28;20421;-84
2022/05/25 11:29:19;;;;;;;19.70;18.90;;;19.00;23.50;;;;;;4975740;28;20417;-84
2022/05/25 11:32:01;;;;;;;19.77;19.07;;;18.90;24.30;;;;;;4994617;28;20428;-85
2022/05/25 11:34:36;;;;;;;20.50;19.30;;;19.00;24.00;;;;;;4994134;28;20445;-84
2022/05/25 11:37:28;;;;;;;20.40;19.60;;;19.00;24.50;;;;;;4994024;28;20440;-85
2022/05/25 11:40:05;;;;;;;19.50;18.80;;;19.00;24.20;;;;;;4993969;28;20957;-84
2022/05/25 11:43:18;;;;;;;20.03;19.17;;;19.20;23.80;;;;;;4994008;28;20864;-85
2022/05/25 11:46:02;;;;;;;20.53;19.63;;;19.30;22.80;;;;;;4984793;28;20973;-85
2022/05/25 11:49:08;;;;;;;20.23;19.23;;;19.40;23.20;;;;;;4994244;28;20846;-85
2022/05/25 11:51:34;;;;;;;19.07;18.47;;;19.60;24.00;;;;;;4993224;28;20413;-85
2022/05/25 11:54:18;;;;;;;19.50;18.80;;;19.80;22.20;;;;;;4993306;28;20547;-85
2022/05/25 11:56:52;;;;;;;19.63;18.93;;;19.80;21.90;;;;;;4993668;28;20272;-85
2022/05/25 11:59:33;;;;;;;20.40;19.50;;;19.70;23.80;;;;;;4993546;28;20413;-86
2022/05/25 12:01:59;;;;;;;18.83;18.13;;;19.60;23.10;;;;;;4993305;28;20467;-85
2022/05/25 12:04:46;;;;;;;20.90;20.00;;;19.50;22.90;;;;;;4993685;28;20420;-85
2022/05/25 12:07:28;;;;;;;20.13;19.43;;;19.60;22.80;;;;;;4993399;28;20170;-85
2022/05/25 12:10:12;;;;;;;20.13;19.43;;;19.70;21.90;;;;;;4993505;28;20765;-85
2022/05/25 12:12:53;;;;;;;20.80;20.07;;;19.70;22.80;;;;;;4993003;28;20465;-86
2022/05/25 12:15:31;;;;;;;19.00;18.20;;;19.80;23.30;;;;;;4991864;28;20413;-85
2022/05/25 12:18:01;;;;;;;20.83;20.03;;;19.90;22.20;;;;;;4993567;28;20932;-85
2022/05/25 12:20:43;;;;;;;20.83;20.13;;;20.00;22.80;;;;;;4993474;28;20418;-85
2022/05/25 12:23:15;;;;;;;21.10;20.30;;;20.00;21.90;;;;;;4994427;28;20456;-85
2022/05/25 12:25:49;;;;;;;21.63;20.73;;;20.10;21.80;;;;;;4992768;28;20963;-86
2022/05/25 12:28:15;;;;;;;21.20;20.40;;;20.10;21.80;;;;;;4994405;28;20409;-83
2022/05/25 12:30:44;;;;;;;21.07;20.20;;;20.30;22.90;;;;;;4993003;28;20471;-84
2022/05/25 12:33:15;;;;;;;20.20;19.40;;;20.40;21.80;;;;;;4992792;28;20535;-84
2022/05/25 12:35:42;;;;;;;20.00;19.30;;;20.50;23.20;;;;;;4993519;28;20472;-85
2022/05/25 12:38:09;;;;;;;21.00;20.27;;;20.60;21.80;;;;;;4992616;28;20747;-85
2022/05/25 12:40:50;;;;;;;21.10;20.00;;;20.80;22.20;;;;;;4993000;28;20414;-85
2022/05/25 12:43:45;;;;;;;20.60;19.80;;;20.90;21.60;;;;;;4992705;28;20416;-85
2022/05/25 12:48:57;;;;;;;20.43;19.53;;;21.20;21.40;;;;;;4993921;28;20407;-85
2022/05/25 12:51:33;;;;;;;20.13;19.13;;;21.00;20.00;;;;;;4992421;28;20784;-85
2022/05/25 12:54:04;;;;;;;20.23;19.50;;;21.10;20.20;;;;;;4992356;28;20547;-85
2022/05/25 12:56:39;;;;;;;21.97;20.90;;;21.00;20.90;;;;;;4991957;28;20418;-85
2022/05/25 12:59:11;;;;;;;21.43;20.53;;;20.70;21.10;;;;;;4992412;28;20425;-85
2022/05/25 13:01:42;;;;;;;19.53;18.83;;;20.70;20.90;;;;;;4992375;28;20414;-85
2022/05/25 13:04:19;;;;;;;19.70;18.80;;;20.80;20.50;;;;;;4991880;28;20429;-86
2022/05/25 13:06:46;;;;;;;19.63;18.93;;;20.90;21.80;;;;;;4992166;28;20420;-85
2022/05/25 13:09:40;;;;;;;19.90;19.20;;;21.00;20.30;;;;;;4991750;28;20433;-85
2022/05/25 13:12:38;;;;;;;20.07;19.13;;;21.10;20.10;;;;;;4991531;28;20417;-85
2022/05/25 13:15:24;;;;;;;19.43;18.73;;;21.30;20.00;;;;;;4992313;28;20413;-85
2022/05/25 13:18:00;;;;;;;20.27;19.57;;;21.40;20.20;;;;;;4991163;28;20417;-84